sensor_id;sensor_type;location;lat;lon;timestamp;P1;durP1;ratioP1;P2;durP2;ratioP2
52266;SDS011;38223;50.940;4.034;2024-02-16T00:00:26;7.25;;;5.22;;
52266;SDS011;38223;50.940;4.034;2024-02-16T00:02:59;8.00;;;5.05;;
52266;SDS011;38223;50.940;4.034;2024-02-16T00:05:29;7.72;;;5.20;;
52266;SDS011;38223;50.940;4.034;2024-02-16T00:08:01;6.60;;;4.50;;
52266;SDS011;38223;50.940;4.034;2024-02-16T00:10:34;7.17;;;4.80;;
52266;SDS011;38223;50.940;4.034;2024-02-16T00:15:53;7.93;;;5.07;;
52266;SDS011;38223;50.940;4.034;2024-02-16T00:18:24;7.28;;;5.03;;
52266;SDS011;38223;50.940;4.034;2024-02-16T00:20:55;5.47;;;4.95;;
52266;SDS011;38223;50.940;4.034;2024-02-16T00:23:26;7.08;;;4.85;;
52266;SDS011;38223;50.940;4.034;2024-02-16T00:25:59;9.25;;;5.83;;
52266;SDS011;38223;50.940;4.034;2024-02-16T00:28:30;5.87;;;4.78;;
52266;SDS011;38223;50.940;4.034;2024-02-16T00:31:02;5.95;;;5.05;;
52266;SDS011;38223;50.940;4.034;2024-02-16T00:33:39;5.95;;;5.05;;
52266;SDS011;38223;50.940;4.034;2024-02-16T00:36:11;8.20;;;5.07;;
52266;SDS011;38223;50.940;4.034;2024-02-16T00:38:43;10.50;;;5.87;;
52266;SDS011;38223;50.940;4.034;2024-02-16T00:41:23;7.78;;;6.20;;
52266;SDS011;38223;50.940;4.034;2024-02-16T00:43:51;7.80;;;5.90;;
52266;SDS011;38223;50.940;4.034;2024-02-16T00:46:25;8.18;;;5.78;;
52266;SDS011;38223;50.940;4.034;2024-02-16T00:48:58;8.38;;;5.28;;
52266;SDS011;38223;50.940;4.034;2024-02-16T00:54:08;8.25;;;4.97;;
52266;SDS011;38223;50.940;4.034;2024-02-16T00:56:42;6.62;;;4.87;;
52266;SDS011;38223;50.940;4.034;2024-02-16T00:59:12;5.60;;;3.77;;
52266;SDS011;38223;50.940;4.034;2024-02-16T01:01:43;5.95;;;4.10;;
52266;SDS011;38223;50.940;4.034;2024-02-16T01:04:21;5.58;;;4.33;;
52266;SDS011;38223;50.940;4.034;2024-02-16T01:06:53;4.42;;;4.03;;
52266;SDS011;38223;50.940;4.034;2024-02-16T01:09:31;5.10;;;3.87;;
52266;SDS011;38223;50.940;4.034;2024-02-16T01:12:03;6.25;;;4.28;;
52266;SDS011;38223;50.940;4.034;2024-02-16T01:14:36;6.30;;;4.45;;
52266;SDS011;38223;50.940;4.034;2024-02-16T01:17:07;5.22;;;4.33;;
52266;SDS011;38223;50.940;4.034;2024-02-16T01:19:36;6.58;;;3.87;;
52266;SDS011;38223;50.940;4.034;2024-02-16T01:22:07;5.70;;;3.87;;
52266;SDS011;38223;50.940;4.034;2024-02-16T01:24:36;4.90;;;3.83;;
52266;SDS011;38223;50.940;4.034;2024-02-16T01:27:08;6.17;;;3.83;;
52266;SDS011;38223;50.940;4.034;2024-02-16T01:29:50;5.58;;;3.72;;
52266;SDS011;38223;50.940;4.034;2024-02-16T01:32:23;4.22;;;3.52;;
52266;SDS011;38223;50.940;4.034;2024-02-16T01:34:56;5.22;;;3.22;;
52266;SDS011;38223;50.940;4.034;2024-02-16T01:37:30;5.15;;;3.33;;
52266;SDS011;38223;50.940;4.034;2024-02-16T01:40:04;4.10;;;3.60;;
52266;SDS011;38223;50.940;4.034;2024-02-16T01:42:38;4.17;;;3.62;;
52266;SDS011;38223;50.940;4.034;2024-02-16T01:45:07;4.70;;;3.75;;
52266;SDS011;38223;50.940;4.034;2024-02-16T01:47:43;5.37;;;3.60;;
52266;SDS011;38223;50.940;4.034;2024-02-16T01:50:19;4.72;;;3.70;;
52266;SDS011;38223;50.940;4.034;2024-02-16T01:52:53;4.47;;;3.47;;
52266;SDS011;38223;50.940;4.034;2024-02-16T01:55:22;5.58;;;3.80;;
52266;SDS011;38223;50.940;4.034;2024-02-16T01:57:57;4.50;;;3.90;;
52266;SDS011;38223;50.940;4.034;2024-02-16T02:00:27;4.55;;;3.72;;
52266;SDS011;38223;50.940;4.034;2024-02-16T02:02:58;9.93;;;3.37;;
52266;SDS011;38223;50.940;4.034;2024-02-16T02:05:32;6.10;;;3.90;;
52266;SDS011;38223;50.940;4.034;2024-02-16T02:08:11;5.45;;;3.75;;
52266;SDS011;38223;50.940;4.034;2024-02-16T02:10:45;8.53;;;3.83;;
52266;SDS011;38223;50.940;4.034;2024-02-16T02:13:15;5.45;;;3.90;;
52266;SDS011;38223;50.940;4.034;2024-02-16T02:18:14;4.50;;;4.10;;
52266;SDS011;38223;50.940;4.034;2024-02-16T02:20:46;6.15;;;4.25;;
52266;SDS011;38223;50.940;4.034;2024-02-16T02:23:17;8.05;;;4.47;;
52266;SDS011;38223;50.940;4.034;2024-02-16T02:25:52;9.63;;;4.47;;
52266;SDS011;38223;50.940;4.034;2024-02-16T02:28:22;4.95;;;4.05;;
52266;SDS011;38223;50.940;4.034;2024-02-16T02:30:56;4.42;;;3.90;;
52266;SDS011;38223;50.940;4.034;2024-02-16T02:33:26;7.28;;;4.70;;
52266;SDS011;38223;50.940;4.034;2024-02-16T02:35:57;5.67;;;4.60;;
52266;SDS011;38223;50.940;4.034;2024-02-16T02:38:28;4.92;;;4.00;;
52266;SDS011;38223;50.940;4.034;2024-02-16T02:41:02;6.05;;;4.65;;
52266;SDS011;38223;50.940;4.034;2024-02-16T02:43:30;6.97;;;4.33;;
52266;SDS011;38223;50.940;4.034;2024-02-16T02:46:00;5.70;;;4.37;;
52266;SDS011;38223;50.940;4.034;2024-02-16T02:48:35;6.03;;;4.45;;
52266;SDS011;38223;50.940;4.034;2024-02-16T02:51:05;5.95;;;4.53;;
52266;SDS011;38223;50.940;4.034;2024-02-16T02:53:36;8.38;;;5.03;;
52266;SDS011;38223;50.940;4.034;2024-02-16T02:56:19;9.85;;;4.83;;
52266;SDS011;38223;50.940;4.034;2024-02-16T02:58:50;6.67;;;4.40;;
52266;SDS011;38223;50.940;4.034;2024-02-16T03:01:23;4.85;;;3.87;;
52266;SDS011;38223;50.940;4.034;2024-02-16T03:03:54;6.90;;;4.87;;
52266;SDS011;38223;50.940;4.034;2024-02-16T03:06:25;7.28;;;4.60;;
52266;SDS011;38223;50.940;4.034;2024-02-16T03:08:59;5.80;;;4.70;;
52266;SDS011;38223;50.940;4.034;2024-02-16T03:11:29;8.80;;;4.80;;
52266;SDS011;38223;50.940;4.034;2024-02-16T03:14:02;6.03;;;4.22;;
52266;SDS011;38223;50.940;4.034;2024-02-16T03:16:31;7.67;;;4.83;;
52266;SDS011;38223;50.940;4.034;2024-02-16T03:19:09;5.25;;;4.37;;
52266;SDS011;38223;50.940;4.034;2024-02-16T03:21:38;5.97;;;4.37;;
52266;SDS011;38223;50.940;4.034;2024-02-16T03:24:08;4.50;;;3.85;;
52266;SDS011;38223;50.940;4.034;2024-02-16T03:26:38;7.70;;;4.00;;
52266;SDS011;38223;50.940;4.034;2024-02-16T03:29:11;5.03;;;4.00;;
52266;SDS011;38223;50.940;4.034;2024-02-16T03:31:43;7.50;;;4.55;;
52266;SDS011;38223;50.940;4.034;2024-02-16T03:34:14;5.50;;;3.87;;
52266;SDS011;38223;50.940;4.034;2024-02-16T03:36:44;6.58;;;4.08;;
52266;SDS011;38223;50.940;4.034;2024-02-16T03:39:20;6.50;;;4.28;;
52266;SDS011;38223;50.940;4.034;2024-02-16T03:41:53;5.03;;;3.67;;
52266;SDS011;38223;50.940;4.034;2024-02-16T03:44:23;6.50;;;4.17;;
52266;SDS011;38223;50.940;4.034;2024-02-16T03:46:53;8.80;;;3.80;;
52266;SDS011;38223;50.940;4.034;2024-02-16T03:49:27;5.50;;;3.87;;
52266;SDS011;38223;50.940;4.034;2024-02-16T03:51:56;4.85;;;3.42;;
52266;SDS011;38223;50.940;4.034;2024-02-16T03:54:26;4.95;;;3.55;;
52266;SDS011;38223;50.940;4.034;2024-02-16T03:56:59;4.87;;;3.50;;
52266;SDS011;38223;50.940;4.034;2024-02-16T04:02:02;5.00;;;3.20;;
52266;SDS011;38223;50.940;4.034;2024-02-16T04:04:32;6.22;;;3.65;;
52266;SDS011;38223;50.940;4.034;2024-02-16T04:07:03;4.65;;;3.12;;
52266;SDS011;38223;50.940;4.034;2024-02-16T04:09:38;5.10;;;3.05;;
52266;SDS011;38223;50.940;4.034;2024-02-16T04:12:13;3.45;;;2.85;;
52266;SDS011;38223;50.940;4.034;2024-02-16T04:14:42;5.17;;;3.10;;
52266;SDS011;38223;50.940;4.034;2024-02-16T04:17:13;7.75;;;2.87;;
52266;SDS011;38223;50.940;4.034;2024-02-16T04:19:43;4.10;;;3.10;;
52266;SDS011;38223;50.940;4.034;2024-02-16T04:22:15;4.30;;;2.75;;
52266;SDS011;38223;50.940;4.034;2024-02-16T04:24:51;6.92;;;3.08;;
52266;SDS011;38223;50.940;4.034;2024-02-16T04:27:23;4.42;;;2.98;;
52266;SDS011;38223;50.940;4.034;2024-02-16T04:29:59;4.83;;;3.50;;
52266;SDS011;38223;50.940;4.034;2024-02-16T04:32:30;4.17;;;3.00;;
52266;SDS011;38223;50.940;4.034;2024-02-16T04:35:03;7.53;;;3.08;;
52266;SDS011;38223;50.940;4.034;2024-02-16T04:37:33;4.30;;;2.90;;
52266;SDS011;38223;50.940;4.034;2024-02-16T04:40:04;4.87;;;2.95;;
52266;SDS011;38223;50.940;4.034;2024-02-16T04:45:11;3.20;;;2.77;;
52266;SDS011;38223;50.940;4.034;2024-02-16T04:47:41;3.30;;;2.45;;
52266;SDS011;38223;50.940;4.034;2024-02-16T04:50:12;4.62;;;3.20;;
52266;SDS011;38223;50.940;4.034;2024-02-16T04:52:50;6.40;;;3.60;;
52266;SDS011;38223;50.940;4.034;2024-02-16T04:55:23;5.97;;;3.50;;
52266;SDS011;38223;50.940;4.034;2024-02-16T04:57:52;3.22;;;2.92;;
52266;SDS011;38223;50.940;4.034;2024-02-16T05:00:27;4.35;;;3.50;;
52266;SDS011;38223;50.940;4.034;2024-02-16T05:02:58;6.20;;;3.02;;
52266;SDS011;38223;50.940;4.034;2024-02-16T05:05:28;5.85;;;3.00;;
52266;SDS011;38223;50.940;4.034;2024-02-16T05:08:05;3.52;;;3.20;;
52266;SDS011;38223;50.940;4.034;2024-02-16T05:10:34;5.15;;;3.50;;
52266;SDS011;38223;50.940;4.034;2024-02-16T05:13:03;3.55;;;3.25;;
52266;SDS011;38223;50.940;4.034;2024-02-16T05:15:38;7.10;;;4.00;;
52266;SDS011;38223;50.940;4.034;2024-02-16T05:18:12;3.85;;;3.30;;
52266;SDS011;38223;50.940;4.034;2024-02-16T05:20:43;4.37;;;3.17;;
52266;SDS011;38223;50.940;4.034;2024-02-16T05:23:15;5.05;;;3.37;;
52266;SDS011;38223;50.940;4.034;2024-02-16T05:26:05;4.22;;;3.40;;
52266;SDS011;38223;50.940;4.034;2024-02-16T05:28:39;6.17;;;3.40;;
52266;SDS011;38223;50.940;4.034;2024-02-16T05:31:13;3.55;;;3.02;;
52266;SDS011;38223;50.940;4.034;2024-02-16T05:33:46;6.40;;;3.22;;
52266;SDS011;38223;50.940;4.034;2024-02-16T05:36:23;4.87;;;3.65;;
52266;SDS011;38223;50.940;4.034;2024-02-16T05:38:53;5.12;;;3.17;;
52266;SDS011;38223;50.940;4.034;2024-02-16T05:41:30;4.97;;;3.30;;
52266;SDS011;38223;50.940;4.034;2024-02-16T05:44:02;5.65;;;3.35;;
52266;SDS011;38223;50.940;4.034;2024-02-16T05:46:36;5.50;;;3.47;;
52266;SDS011;38223;50.940;4.034;2024-02-16T05:49:06;5.40;;;3.55;;
52266;SDS011;38223;50.940;4.034;2024-02-16T05:51:39;4.70;;;3.75;;
52266;SDS011;38223;50.940;4.034;2024-02-16T05:54:10;6.83;;;3.90;;
52266;SDS011;38223;50.940;4.034;2024-02-16T05:56:43;4.75;;;3.62;;
52266;SDS011;38223;50.940;4.034;2024-02-16T05:59:13;4.85;;;3.35;;
52266;SDS011;38223;50.940;4.034;2024-02-16T06:01:47;5.12;;;3.27;;
52266;SDS011;38223;50.940;4.034;2024-02-16T06:04:17;5.17;;;3.42;;
52266;SDS011;38223;50.940;4.034;2024-02-16T06:06:51;9.10;;;3.83;;
52266;SDS011;38223;50.940;4.034;2024-02-16T06:09:24;6.55;;;3.33;;
52266;SDS011;38223;50.940;4.034;2024-02-16T06:11:55;9.38;;;3.40;;
52266;SDS011;38223;50.940;4.034;2024-02-16T06:14:25;4.62;;;3.40;;
52266;SDS011;38223;50.940;4.034;2024-02-16T06:17:00;6.30;;;3.58;;
52266;SDS011;38223;50.940;4.034;2024-02-16T06:19:33;6.03;;;3.10;;
52266;SDS011;38223;50.940;4.034;2024-02-16T06:22:03;3.62;;;3.17;;
52266;SDS011;38223;50.940;4.034;2024-02-16T06:24:38;6.65;;;3.70;;
52266;SDS011;38223;50.940;4.034;2024-02-16T06:27:10;5.03;;;3.70;;
52266;SDS011;38223;50.940;4.034;2024-02-16T06:29:46;7.80;;;4.28;;
52266;SDS011;38223;50.940;4.034;2024-02-16T06:32:16;3.37;;;2.98;;
52266;SDS011;38223;50.940;4.034;2024-02-16T06:34:50;8.20;;;3.30;;
52266;SDS011;38223;50.940;4.034;2024-02-16T06:37:19;5.87;;;3.55;;
52266;SDS011;38223;50.940;4.034;2024-02-16T06:39:49;5.60;;;3.27;;
52266;SDS011;38223;50.940;4.034;2024-02-16T06:42:20;7.45;;;3.60;;
52266;SDS011;38223;50.940;4.034;2024-02-16T06:47:24;4.17;;;3.27;;
52266;SDS011;38223;50.940;4.034;2024-02-16T06:49:57;6.58;;;3.42;;
52266;SDS011;38223;50.940;4.034;2024-02-16T06:52:29;4.95;;;3.50;;
52266;SDS011;38223;50.940;4.034;2024-02-16T06:54:59;6.47;;;3.75;;
52266;SDS011;38223;50.940;4.034;2024-02-16T06:57:33;5.30;;;3.10;;
52266;SDS011;38223;50.940;4.034;2024-02-16T07:00:04;7.47;;;4.00;;
52266;SDS011;38223;50.940;4.034;2024-02-16T07:02:36;7.87;;;3.80;;
52266;SDS011;38223;50.940;4.034;2024-02-16T07:05:07;5.72;;;3.65;;
52266;SDS011;38223;50.940;4.034;2024-02-16T07:07:41;7.75;;;4.05;;
52266;SDS011;38223;50.940;4.034;2024-02-16T07:10:11;8.43;;;3.85;;
52266;SDS011;38223;50.940;4.034;2024-02-16T07:12:44;5.87;;;3.87;;
52266;SDS011;38223;50.940;4.034;2024-02-16T07:15:18;4.78;;;3.80;;
52266;SDS011;38223;50.940;4.034;2024-02-16T07:17:47;6.78;;;4.28;;
52266;SDS011;38223;50.940;4.034;2024-02-16T07:20:21;7.45;;;3.95;;
52266;SDS011;38223;50.940;4.034;2024-02-16T07:22:51;6.30;;;3.83;;
52266;SDS011;38223;50.940;4.034;2024-02-16T07:25:29;7.20;;;4.08;;
52266;SDS011;38223;50.940;4.034;2024-02-16T07:28:04;4.85;;;3.92;;
52266;SDS011;38223;50.940;4.034;2024-02-16T07:30:34;8.78;;;3.90;;
52266;SDS011;38223;50.940;4.034;2024-02-16T07:33:07;8.70;;;3.80;;
52266;SDS011;38223;50.940;4.034;2024-02-16T07:35:44;6.78;;;4.08;;
52266;SDS011;38223;50.940;4.034;2024-02-16T07:38:17;6.55;;;4.10;;
52266;SDS011;38223;50.940;4.034;2024-02-16T07:43:24;9.35;;;4.55;;
52266;SDS011;38223;50.940;4.034;2024-02-16T07:45:57;5.85;;;4.30;;
52266;SDS011;38223;50.940;4.034;2024-02-16T07:48:30;6.17;;;4.30;;
52266;SDS011;38223;50.940;4.034;2024-02-16T07:51:01;5.50;;;3.87;;
52266;SDS011;38223;50.940;4.034;2024-02-16T07:53:32;8.80;;;4.60;;
52266;SDS011;38223;50.940;4.034;2024-02-16T07:56:05;9.58;;;3.90;;
52266;SDS011;38223;50.940;4.034;2024-02-16T07:58:35;4.40;;;3.77;;
52266;SDS011;38223;50.940;4.034;2024-02-16T08:01:08;7.37;;;4.35;;
52266;SDS011;38223;50.940;4.034;2024-02-16T08:03:40;4.90;;;4.00;;
52266;SDS011;38223;50.940;4.034;2024-02-16T08:06:13;4.72;;;3.95;;
52266;SDS011;38223;50.940;4.034;2024-02-16T08:08:47;5.22;;;4.30;;
52266;SDS011;38223;50.940;4.034;2024-02-16T08:11:17;6.08;;;4.05;;
52266;SDS011;38223;50.940;4.034;2024-02-16T08:13:47;5.50;;;4.20;;
52266;SDS011;38223;50.940;4.034;2024-02-16T08:16:19;6.40;;;4.20;;
52266;SDS011;38223;50.940;4.034;2024-02-16T08:18:51;7.60;;;4.20;;
52266;SDS011;38223;50.940;4.034;2024-02-16T08:21:21;7.17;;;4.25;;
52266;SDS011;38223;50.940;4.034;2024-02-16T08:23:51;7.67;;;4.40;;
52266;SDS011;38223;50.940;4.034;2024-02-16T08:26:25;7.25;;;4.35;;
52266;SDS011;38223;50.940;4.034;2024-02-16T08:28:54;5.90;;;4.22;;
52266;SDS011;38223;50.940;4.034;2024-02-16T08:31:28;9.28;;;4.75;;
52266;SDS011;38223;50.940;4.034;2024-02-16T08:33:58;5.08;;;4.08;;
52266;SDS011;38223;50.940;4.034;2024-02-16T08:36:33;6.22;;;4.30;;
52266;SDS011;38223;50.940;4.034;2024-02-16T08:39:05;5.35;;;4.15;;
52266;SDS011;38223;50.940;4.034;2024-02-16T08:41:38;7.20;;;4.53;;
52266;SDS011;38223;50.940;4.034;2024-02-16T08:44:09;8.75;;;4.40;;
52266;SDS011;38223;50.940;4.034;2024-02-16T08:46:47;5.85;;;4.40;;
52266;SDS011;38223;50.940;4.034;2024-02-16T08:49:22;7.33;;;4.12;;
52266;SDS011;38223;50.940;4.034;2024-02-16T08:51:53;13.03;;;4.75;;
52266;SDS011;38223;50.940;4.034;2024-02-16T08:54:22;7.28;;;4.53;;
52266;SDS011;38223;50.940;4.034;2024-02-16T08:56:53;10.20;;;4.60;;
52266;SDS011;38223;50.940;4.034;2024-02-16T08:59:25;7.10;;;4.62;;
52266;SDS011;38223;50.940;4.034;2024-02-16T09:02:06;4.92;;;3.72;;
52266;SDS011;38223;50.940;4.034;2024-02-16T09:04:35;6.00;;;4.42;;
52266;SDS011;38223;50.940;4.034;2024-02-16T09:07:09;8.23;;;4.30;;
52266;SDS011;38223;50.940;4.034;2024-02-16T09:09:40;6.65;;;4.28;;
52266;SDS011;38223;50.940;4.034;2024-02-16T09:12:13;8.20;;;4.47;;
52266;SDS011;38223;50.940;4.034;2024-02-16T09:14:51;10.28;;;5.37;;
52266;SDS011;38223;50.940;4.034;2024-02-16T09:17:21;8.70;;;4.42;;
52266;SDS011;38223;50.940;4.034;2024-02-16T09:19:53;4.90;;;4.45;;
52266;SDS011;38223;50.940;4.034;2024-02-16T09:22:23;6.83;;;4.30;;
52266;SDS011;38223;50.940;4.034;2024-02-16T09:24:54;5.95;;;4.25;;
52266;SDS011;38223;50.940;4.034;2024-02-16T09:27:26;10.80;;;4.92;;
52266;SDS011;38223;50.940;4.034;2024-02-16T09:29:59;8.43;;;4.15;;
52266;SDS011;38223;50.940;4.034;2024-02-16T09:32:33;11.90;;;6.25;;
52266;SDS011;38223;50.940;4.034;2024-02-16T09:35:05;11.03;;;5.15;;
52266;SDS011;38223;50.940;4.034;2024-02-16T09:37:38;9.20;;;5.35;;
52266;SDS011;38223;50.940;4.034;2024-02-16T09:40:13;8.53;;;5.45;;
52266;SDS011;38223;50.940;4.034;2024-02-16T09:42:47;10.38;;;5.80;;
52266;SDS011;38223;50.940;4.034;2024-02-16T09:45:16;10.53;;;5.35;;
52266;SDS011;38223;50.940;4.034;2024-02-16T09:47:51;8.60;;;5.20;;
52266;SDS011;38223;50.940;4.034;2024-02-16T09:50:21;13.58;;;5.85;;
52266;SDS011;38223;50.940;4.034;2024-02-16T09:52:50;10.45;;;6.40;;
52266;SDS011;38223;50.940;4.034;2024-02-16T09:55:29;11.88;;;6.45;;
52266;SDS011;38223;50.940;4.034;2024-02-16T09:58:02;12.20;;;6.78;;
52266;SDS011;38223;50.940;4.034;2024-02-16T10:00:34;14.45;;;7.30;;
52266;SDS011;38223;50.940;4.034;2024-02-16T10:03:08;12.28;;;8.35;;
52266;SDS011;38223;50.940;4.034;2024-02-16T10:05:46;16.40;;;8.50;;
52266;SDS011;38223;50.940;4.034;2024-02-16T10:08:17;8.55;;;6.53;;
52266;SDS011;38223;50.940;4.034;2024-02-16T10:10:49;11.20;;;7.50;;
52266;SDS011;38223;50.940;4.034;2024-02-16T10:13:18;17.70;;;7.90;;
52266;SDS011;38223;50.940;4.034;2024-02-16T10:15:50;12.43;;;7.47;;
52266;SDS011;38223;50.940;4.034;2024-02-16T10:18:21;12.68;;;8.38;;
52266;SDS011;38223;50.940;4.034;2024-02-16T10:20:53;14.90;;;8.38;;
52266;SDS011;38223;50.940;4.034;2024-02-16T10:23:24;9.83;;;7.83;;
52266;SDS011;38223;50.940;4.034;2024-02-16T10:25:55;13.62;;;7.25;;
52266;SDS011;38223;50.940;4.034;2024-02-16T10:28:28;16.95;;;7.70;;
52266;SDS011;38223;50.940;4.034;2024-02-16T10:31:01;13.65;;;8.15;;
52266;SDS011;38223;50.940;4.034;2024-02-16T10:33:31;21.17;;;7.87;;
52266;SDS011;38223;50.940;4.034;2024-02-16T10:36:06;13.72;;;7.62;;
52266;SDS011;38223;50.940;4.034;2024-02-16T10:38:42;14.30;;;8.68;;
52266;SDS011;38223;50.940;4.034;2024-02-16T10:41:17;15.40;;;8.63;;
52266;SDS011;38223;50.940;4.034;2024-02-16T10:43:47;11.12;;;8.45;;
52266;SDS011;38223;50.940;4.034;2024-02-16T10:46:22;14.40;;;8.95;;
52266;SDS011;38223;50.940;4.034;2024-02-16T10:48:54;11.12;;;9.93;;
52266;SDS011;38223;50.940;4.034;2024-02-16T10:51:37;11.12;;;9.25;;
52266;SDS011;38223;50.940;4.034;2024-02-16T10:54:12;12.18;;;9.48;;
52266;SDS011;38223;50.940;4.034;2024-02-16T10:56:46;14.50;;;10.82;;
52266;SDS011;38223;50.940;4.034;2024-02-16T10:59:19;11.88;;;9.55;;
52266;SDS011;38223;50.940;4.034;2024-02-16T11:01:58;15.43;;;10.85;;
52266;SDS011;38223;50.940;4.034;2024-02-16T11:04:36;16.93;;;11.63;;
52266;SDS011;38223;50.940;4.034;2024-02-16T11:07:18;13.55;;;11.35;;
52266;SDS011;38223;50.940;4.034;2024-02-16T11:09:50;14.18;;;11.55;;
52266;SDS011;38223;50.940;4.034;2024-02-16T11:12:24;14.23;;;11.45;;
52266;SDS011;38223;50.940;4.034;2024-02-16T11:14:53;13.32;;;11.93;;
52266;SDS011;38223;50.940;4.034;2024-02-16T11:17:25;17.75;;;11.70;;
52266;SDS011;38223;50.940;4.034;2024-02-16T11:19:59;14.30;;;12.70;;
52266;SDS011;38223;50.940;4.034;2024-02-16T11:22:31;16.37;;;12.25;;
52266;SDS011;38223;50.940;4.034;2024-02-16T11:25:16;13.72;;;11.83;;
52266;SDS011;38223;50.940;4.034;2024-02-16T11:27:48;13.72;;;11.97;;
52266;SDS011;38223;50.940;4.034;2024-02-16T11:30:21;15.23;;;12.23;;
52266;SDS011;38223;50.940;4.034;2024-02-16T11:32:55;15.45;;;12.65;;
52266;SDS011;38223;50.940;4.034;2024-02-16T11:35:25;15.60;;;13.58;;
52266;SDS011;38223;50.940;4.034;2024-02-16T11:37:56;17.27;;;15.35;;
52266;SDS011;38223;50.940;4.034;2024-02-16T11:40:30;18.50;;;15.38;;
52266;SDS011;38223;50.940;4.034;2024-02-16T11:43:05;18.98;;;17.27;;
52266;SDS011;38223;50.940;4.034;2024-02-16T11:45:35;17.75;;;16.00;;
52266;SDS011;38223;50.940;4.034;2024-02-16T11:48:08;19.52;;;16.15;;
52266;SDS011;38223;50.940;4.034;2024-02-16T11:50:46;19.60;;;16.93;;
52266;SDS011;38223;50.940;4.034;2024-02-16T11:53:18;17.57;;;15.83;;
52266;SDS011;38223;50.940;4.034;2024-02-16T11:55:49;15.53;;;14.03;;
52266;SDS011;38223;50.940;4.034;2024-02-16T11:58:21;16.10;;;14.53;;
52266;SDS011;38223;50.940;4.034;2024-02-16T12:00:55;18.55;;;16.40;;
52266;SDS011;38223;50.940;4.034;2024-02-16T12:03:30;16.50;;;14.90;;
52266;SDS011;38223;50.940;4.034;2024-02-16T12:06:00;15.58;;;14.07;;
52266;SDS011;38223;50.940;4.034;2024-02-16T12:08:32;14.98;;;13.68;;
52266;SDS011;38223;50.940;4.034;2024-02-16T12:11:05;14.50;;;13.20;;
52266;SDS011;38223;50.940;4.034;2024-02-16T12:13:36;14.40;;;13.00;;
52266;SDS011;38223;50.940;4.034;2024-02-16T12:16:07;15.68;;;14.28;;
52266;SDS011;38223;50.940;4.034;2024-02-16T12:18:37;14.60;;;13.10;;
52266;SDS011;38223;50.940;4.034;2024-02-16T12:23:44;17.27;;;13.65;;
52266;SDS011;38223;50.940;4.034;2024-02-16T12:26:14;14.43;;;13.13;;
52266;SDS011;38223;50.940;4.034;2024-02-16T12:28:44;14.38;;;13.08;;
52266;SDS011;38223;50.940;4.034;2024-02-16T12:31:21;13.70;;;11.78;;
52266;SDS011;38223;50.940;4.034;2024-02-16T12:33:52;12.98;;;11.60;;
52266;SDS011;38223;50.940;4.034;2024-02-16T12:38:50;10.60;;;9.63;;
52266;SDS011;38223;50.940;4.034;2024-02-16T12:41:20;10.35;;;9.45;;
52266;SDS011;38223;50.940;4.034;2024-02-16T12:43:51;11.95;;;9.88;;
52266;SDS011;38223;50.940;4.034;2024-02-16T12:46:25;9.35;;;8.50;;
52266;SDS011;38223;50.940;4.034;2024-02-16T12:49:00;8.35;;;7.65;;
52266;SDS011;38223;50.940;4.034;2024-02-16T12:51:33;7.72;;;6.92;;
52266;SDS011;38223;50.940;4.034;2024-02-16T12:54:03;8.20;;;7.50;;
52266;SDS011;38223;50.940;4.034;2024-02-16T13:01:36;6.95;;;6.42;;
52266;SDS011;38223;50.940;4.034;2024-02-16T13:04:08;6.55;;;5.85;;
52266;SDS011;38223;50.940;4.034;2024-02-16T13:06:38;5.95;;;5.45;;
52266;SDS011;38223;50.940;4.034;2024-02-16T13:09:10;7.17;;;5.30;;
52266;SDS011;38223;50.940;4.034;2024-02-16T13:11:44;6.10;;;5.60;;
52266;SDS011;38223;50.940;4.034;2024-02-16T13:14:14;5.10;;;4.70;;
52266;SDS011;38223;50.940;4.034;2024-02-16T13:16:48;4.85;;;4.37;;
52266;SDS011;38223;50.940;4.034;2024-02-16T13:19:18;4.58;;;3.70;;
52266;SDS011;38223;50.940;4.034;2024-02-16T13:21:48;5.05;;;4.70;;
52266;SDS011;38223;50.940;4.034;2024-02-16T13:24:21;5.05;;;4.65;;
52266;SDS011;38223;50.940;4.034;2024-02-16T13:26:52;5.08;;;4.60;;
52266;SDS011;38223;50.940;4.034;2024-02-16T13:29:32;4.72;;;4.33;;
52266;SDS011;38223;50.940;4.034;2024-02-16T13:32:02;4.92;;;4.62;;
52266;SDS011;38223;50.940;4.034;2024-02-16T13:37:02;5.65;;;4.80;;
52266;SDS011;38223;50.940;4.034;2024-02-16T13:39:41;4.55;;;4.25;;
52266;SDS011;38223;50.940;4.034;2024-02-16T13:42:14;4.83;;;4.33;;
52266;SDS011;38223;50.940;4.034;2024-02-16T13:44:44;5.12;;;4.70;;
52266;SDS011;38223;50.940;4.034;2024-02-16T13:47:15;4.28;;;3.98;;
52266;SDS011;38223;50.940;4.034;2024-02-16T13:49:49;4.08;;;3.75;;
52266;SDS011;38223;50.940;4.034;2024-02-16T13:52:18;4.53;;;4.00;;
52266;SDS011;38223;50.940;4.034;2024-02-16T13:54:50;3.67;;;3.30;;
52266;SDS011;38223;50.940;4.034;2024-02-16T13:57:39;3.87;;;3.53;;
52266;SDS011;38223;50.940;4.034;2024-02-16T14:00:11;3.17;;;2.98;;
52266;SDS011;38223;50.940;4.034;2024-02-16T14:03:08;4.30;;;3.98;;
52266;SDS011;38223;50.940;4.034;2024-02-16T14:05:41;6.05;;;3.27;;
52266;SDS011;38223;50.940;4.034;2024-02-16T14:08:19;3.10;;;2.90;;
52266;SDS011;38223;50.940;4.034;2024-02-16T14:10:48;3.12;;;2.85;;
52266;SDS011;38223;50.940;4.034;2024-02-16T14:13:18;5.22;;;2.90;;
52266;SDS011;38223;50.940;4.034;2024-02-16T14:15:52;3.12;;;2.90;;
52266;SDS011;38223;50.940;4.034;2024-02-16T14:18:22;3.00;;;2.80;;
52266;SDS011;38223;50.940;4.034;2024-02-16T14:20:55;5.03;;;2.80;;
52266;SDS011;38223;50.940;4.034;2024-02-16T14:23:28;4.42;;;3.47;;
52266;SDS011;38223;50.940;4.034;2024-02-16T14:26:03;3.30;;;3.00;;
52266;SDS011;38223;50.940;4.034;2024-02-16T14:28:34;3.50;;;3.20;;
52266;SDS011;38223;50.940;4.034;2024-02-16T14:31:09;4.22;;;3.83;;
52266;SDS011;38223;50.940;4.034;2024-02-16T14:33:44;4.42;;;4.05;;
52266;SDS011;38223;50.940;4.034;2024-02-16T14:36:18;4.92;;;4.17;;
52266;SDS011;38223;50.940;4.034;2024-02-16T14:38:48;4.58;;;4.20;;
52266;SDS011;38223;50.940;4.034;2024-02-16T14:43:48;5.40;;;4.37;;
52266;SDS011;38223;50.940;4.034;2024-02-16T14:46:18;4.87;;;4.47;;
52266;SDS011;38223;50.940;4.034;2024-02-16T14:51:20;5.25;;;3.37;;
52266;SDS011;38223;50.940;4.034;2024-02-16T14:53:51;3.70;;;3.33;;
52266;SDS011;38223;50.940;4.034;2024-02-16T14:56:24;4.08;;;2.80;;
52266;SDS011;38223;50.940;4.034;2024-02-16T14:59:03;2.42;;;2.20;;
52266;SDS011;38223;50.940;4.034;2024-02-16T15:01:36;4.08;;;3.33;;
52266;SDS011;38223;50.940;4.034;2024-02-16T15:04:09;3.30;;;3.00;;
52266;SDS011;38223;50.940;4.034;2024-02-16T15:06:42;4.22;;;3.33;;
52266;SDS011;38223;50.940;4.034;2024-02-16T15:09:12;3.80;;;3.40;;
52266;SDS011;38223;50.940;4.034;2024-02-16T15:11:42;4.00;;;3.22;;
52266;SDS011;38223;50.940;4.034;2024-02-16T15:14:15;3.77;;;3.47;;
52266;SDS011;38223;50.940;4.034;2024-02-16T15:16:46;6.97;;;3.10;;
52266;SDS011;38223;50.940;4.034;2024-02-16T15:19:21;3.25;;;3.05;;
52266;SDS011;38223;50.940;4.034;2024-02-16T15:21:51;3.25;;;2.60;;
52266;SDS011;38223;50.940;4.034;2024-02-16T15:24:23;4.08;;;2.62;;
52266;SDS011;38223;50.940;4.034;2024-02-16T15:26:58;3.00;;;2.33;;
52266;SDS011;38223;50.940;4.034;2024-02-16T15:29:32;2.80;;;2.37;;
52266;SDS011;38223;50.940;4.034;2024-02-16T15:32:02;2.87;;;2.33;;
52266;SDS011;38223;50.940;4.034;2024-02-16T15:34:38;4.72;;;2.98;;
52266;SDS011;38223;50.940;4.034;2024-02-16T15:37:10;3.70;;;2.80;;
52266;SDS011;38223;50.940;4.034;2024-02-16T15:39:45;7.60;;;3.10;;
52266;SDS011;38223;50.940;4.034;2024-02-16T15:42:18;4.15;;;2.92;;
52266;SDS011;38223;50.940;4.034;2024-02-16T15:44:50;4.72;;;2.47;;
52266;SDS011;38223;50.940;4.034;2024-02-16T15:47:24;2.98;;;2.65;;
52266;SDS011;38223;50.940;4.034;2024-02-16T15:49:58;3.50;;;2.50;;